createdAt,value
2018-11-06T00:01:41.759Z,10.10
2018-11-06T00:04:10.225Z,10.20
2018-11-06T00:06:38.702Z,10.30
2018-11-06T00:09:08.203Z,10.10
2018-11-06T00:11:36.651Z,9.90
2018-11-06T00:14:05.629Z,9.60
2018-11-06T00:16:34.097Z,9.50
2018-11-06T00:19:02.593Z,9.50
2018-11-06T00:21:31.080Z,9.60
2018-11-06T00:23:59.552Z,9.80
2018-11-06T00:26:28.062Z,10.00
2018-11-06T00:28:56.527Z,10.10
2018-11-06T00:31:24.991Z,10.10
2018-11-06T00:33:53.452Z,10.00
2018-11-06T00:36:21.935Z,10.00
2018-11-06T00:38:50.374Z,9.90
2018-11-06T00:41:18.850Z,9.90
2018-11-06T00:43:47.462Z,9.90
2018-11-06T00:46:15.942Z,9.70
2018-11-06T00:48:44.404Z,9.70
2018-11-06T00:51:12.894Z,9.70
2018-11-06T00:53:41.336Z,9.80
2018-11-06T00:56:09.936Z,10.00
2018-11-06T00:58:38.416Z,10.00
2018-11-06T01:01:06.944Z,10.00
2018-11-06T01:03:40.930Z,10.00
2018-11-06T01:06:09.375Z,10.00
2018-11-06T01:08:38.901Z,9.90
2018-11-06T01:11:07.384Z,9.80
2018-11-06T01:13:35.845Z,9.70
2018-11-06T01:16:04.331Z,9.60
2018-11-06T01:18:32.801Z,9.50
2018-11-06T01:21:01.318Z,9.50
2018-11-06T01:23:29.771Z,9.40
2018-11-06T01:25:58.284Z,9.50
2018-11-06T01:28:26.742Z,9.60
2018-11-06T01:30:55.218Z,9.60
2018-11-06T01:33:23.670Z,9.70
2018-11-06T01:35:52.132Z,9.70
2018-11-06T01:38:20.923Z,9.60
2018-11-06T01:40:49.456Z,9.60
2018-11-06T01:43:17.949Z,9.50
2018-11-06T01:45:46.413Z,9.60
2018-11-06T01:48:14.903Z,9.70
2018-11-06T01:50:43.408Z,9.70
2018-11-06T01:53:11.923Z,9.50
2018-11-06T01:55:52.785Z,9.40
2018-11-06T01:58:21.245Z,9.30
2018-11-06T02:00:49.715Z,9.20
2018-11-06T02:03:18.171Z,9.10
2018-11-06T02:05:46.627Z,9.10
2018-11-06T02:08:16.152Z,9.10
2018-11-06T02:10:44.619Z,9.40
2018-11-06T02:13:13.068Z,9.30
2018-11-06T02:15:41.555Z,9.30
2018-11-06T02:18:10.055Z,9.50
2018-11-06T02:20:38.516Z,9.50
2018-11-06T02:23:06.961Z,9.40
2018-11-06T02:25:35.405Z,9.40
2018-11-06T02:28:03.887Z,9.20
2018-11-06T02:30:32.362Z,9.30
2018-11-06T02:33:00.811Z,9.20
2018-11-06T02:35:29.305Z,9.20
2018-11-06T02:37:57.764Z,9.10
2018-11-06T02:40:26.280Z,9.10
2018-11-06T02:42:54.731Z,9.10
2018-11-06T02:45:23.176Z,9.20
2018-11-06T02:47:51.687Z,9.30
2018-11-06T02:50:20.281Z,9.30
2018-11-06T02:52:48.741Z,9.00
2018-11-06T02:55:17.170Z,8.90
2018-11-06T02:57:45.633Z,9.00
2018-11-06T03:00:15.200Z,9.20
2018-11-06T03:02:44.382Z,9.10
2018-11-06T03:05:12.833Z,8.90
2018-11-06T03:07:41.874Z,8.70
2018-11-06T03:10:11.586Z,8.80
2018-11-06T03:12:41.078Z,8.90
2018-11-06T03:15:10.487Z,9.00
2018-11-06T03:17:38.980Z,8.90
2018-11-06T03:20:08.152Z,8.90
2018-11-06T03:22:36.619Z,8.80
2018-11-06T03:25:05.252Z,8.70
2018-11-06T03:27:33.716Z,8.60
2018-11-06T03:30:02.214Z,8.40
2018-11-06T03:32:30.731Z,8.30
2018-11-06T03:34:59.186Z,8.20
2018-11-06T03:37:27.659Z,8.40
2018-11-06T03:39:56.119Z,8.50
2018-11-06T03:42:24.597Z,8.40
2018-11-06T03:44:53.011Z,8.20
2018-11-06T03:47:21.503Z,8.40
2018-11-06T03:49:49.971Z,8.60
2018-11-06T03:52:18.427Z,8.50
2018-11-06T03:54:46.891Z,8.40
2018-11-06T03:57:15.342Z,8.40
2018-11-06T03:59:43.773Z,8.30
2018-11-06T04:02:12.249Z,8.20
2018-11-06T04:04:40.700Z,8.30
2018-11-06T04:07:09.215Z,8.30
2018-11-06T04:09:37.679Z,8.20
2018-11-06T04:12:06.167Z,8.20
2018-11-06T04:14:34.630Z,8.20
2018-11-06T04:17:03.036Z,8.10
2018-11-06T04:19:31.400Z,7.90
2018-11-06T04:21:59.756Z,8.00
2018-11-06T04:24:28.181Z,8.20
2018-11-06T04:26:56.564Z,8.30
2018-11-06T04:29:24.978Z,8.30
2018-11-06T04:31:53.351Z,8.20
2018-11-06T04:34:21.771Z,8.10
2018-11-06T04:36:50.160Z,8.20
2018-11-06T04:39:18.583Z,8.10
2018-11-06T04:41:46.951Z,8.30
2018-11-06T04:44:15.351Z,8.30
2018-11-06T04:46:43.714Z,8.30
2018-11-06T04:49:12.268Z,8.50
2018-11-06T04:51:40.634Z,8.60
2018-11-06T04:54:09.007Z,8.50
2018-11-06T04:56:37.403Z,8.30
2018-11-06T04:59:05.815Z,8.20
2018-11-06T05:01:34.203Z,8.30
2018-11-06T05:04:02.602Z,8.40
2018-11-06T05:06:30.991Z,8.20
2018-11-06T05:08:59.385Z,8.20
2018-11-06T05:11:27.819Z,8.20
2018-11-06T05:13:56.268Z,8.10
2018-11-06T05:16:24.639Z,8.20
2018-11-06T05:18:53.076Z,8.40
2018-11-06T05:21:21.479Z,8.30
2018-11-06T05:23:49.906Z,8.30
2018-11-06T05:26:18.281Z,8.20
2018-11-06T05:28:46.734Z,8.20
2018-11-06T05:31:15.140Z,8.30
2018-11-06T05:33:43.955Z,8.40
2018-11-06T05:36:12.376Z,8.20
2018-11-06T05:38:40.792Z,8.20
2018-11-06T05:41:09.310Z,8.10
2018-11-06T05:43:40.261Z,8.20
2018-11-06T05:46:08.647Z,8.20
2018-11-06T05:48:37.468Z,8.20
2018-11-06T05:51:05.994Z,8.20
2018-11-06T05:53:34.419Z,8.30
2018-11-06T05:56:02.796Z,8.20
2018-11-06T05:58:31.199Z,8.20
2018-11-06T06:00:59.598Z,8.30
2018-11-06T06:03:28.139Z,8.20
2018-11-06T06:05:56.584Z,8.30
2018-11-06T06:08:24.998Z,8.40
2018-11-06T06:10:53.486Z,8.40
2018-11-06T06:13:21.924Z,8.40
2018-11-06T06:15:50.314Z,8.30
2018-11-06T06:18:18.764Z,8.40
2018-11-06T06:20:47.190Z,8.30
2018-11-06T06:23:17.719Z,8.30
2018-11-06T06:25:46.150Z,8.20
2018-11-06T06:28:14.665Z,8.20
2018-11-06T06:30:43.169Z,8.10
2018-11-06T06:33:21.376Z,8.20
2018-11-06T06:35:49.824Z,8.20
2018-11-06T06:38:18.279Z,8.30
2018-11-06T06:40:46.728Z,8.30
2018-11-06T06:43:15.189Z,8.30
2018-11-06T06:45:43.636Z,8.30
2018-11-06T06:48:12.069Z,8.20
2018-11-06T06:50:40.490Z,8.20
2018-11-06T06:53:08.949Z,8.30
2018-11-06T06:55:37.399Z,8.30
2018-11-06T06:58:05.816Z,8.30
2018-11-06T07:00:34.221Z,8.30
2018-11-06T07:03:02.711Z,8.30
2018-11-06T07:05:31.183Z,8.20
2018-11-06T07:07:59.688Z,8.20
2018-11-06T07:10:28.126Z,8.00
2018-11-06T07:12:56.631Z,8.00
2018-11-06T07:15:24.971Z,8.00
2018-11-06T07:17:53.356Z,8.10
2018-11-06T07:20:23.192Z,8.20
2018-11-06T07:22:51.566Z,8.30
2018-11-06T07:25:20.019Z,8.30
2018-11-06T07:27:48.815Z,8.40
2018-11-06T07:30:19.466Z,8.60
2018-11-06T07:32:48.005Z,8.60
2018-11-06T07:35:17.118Z,8.70
2018-11-06T07:37:45.812Z,8.70
2018-11-06T07:40:15.345Z,8.60
2018-11-06T07:42:43.777Z,8.70
2018-11-06T07:45:13.641Z,8.70
2018-11-06T07:47:43.408Z,8.70
2018-11-06T07:50:12.678Z,8.60
2018-11-06T07:52:41.199Z,8.50
2018-11-06T07:55:12.063Z,8.60
2018-11-06T07:57:40.548Z,8.60
2018-11-06T08:00:21.715Z,8.60
2018-11-06T08:02:50.534Z,8.60
2018-11-06T08:05:19.008Z,8.70
2018-11-06T08:07:48.190Z,8.60
2018-11-06T08:10:16.571Z,8.70
2018-11-06T08:12:46.583Z,8.80
2018-11-06T08:15:15.062Z,8.90
2018-11-06T08:17:44.310Z,8.90
2018-11-06T08:20:12.755Z,9.00
2018-11-06T08:22:41.101Z,9.00
2018-11-06T08:25:11.686Z,9.00
2018-11-06T08:27:40.876Z,9.10
2018-11-06T08:30:09.899Z,9.30
2018-11-06T08:32:39.897Z,9.40
2018-11-06T08:35:10.241Z,9.70
2018-11-06T08:37:38.797Z,9.80
2018-11-06T08:40:08.204Z,10.00
2018-11-06T08:42:36.798Z,10.20
2018-11-06T08:45:06.511Z,10.30
2018-11-06T08:47:34.915Z,10.50
2018-11-06T08:50:03.435Z,10.60
2018-11-06T08:52:32.043Z,10.80
2018-11-06T08:55:00.538Z,10.90
2018-11-06T08:57:28.909Z,11.10
2018-11-06T08:59:57.387Z,11.30
2018-11-06T09:02:25.831Z,11.30
2018-11-06T09:04:54.175Z,11.40
2018-11-06T09:07:22.558Z,11.40
2018-11-06T09:09:50.931Z,11.40
2018-11-06T09:12:19.352Z,11.60
2018-11-06T09:14:47.885Z,11.60
2018-11-06T09:17:16.255Z,11.70
2018-11-06T09:19:44.648Z,11.70
2018-11-06T09:22:13.223Z,11.70
2018-11-06T09:24:41.581Z,11.70
2018-11-06T09:27:09.987Z,11.50
2018-11-06T09:29:38.335Z,11.70
2018-11-06T09:32:07.148Z,11.80
2018-11-06T09:34:35.526Z,11.80
2018-11-06T09:37:03.926Z,11.90
2018-11-06T09:39:32.279Z,12.00
2018-11-06T09:42:00.649Z,11.90
2018-11-06T09:44:29.012Z,11.90
2018-11-06T09:46:57.382Z,11.80
2018-11-06T09:49:25.825Z,11.90
2018-11-06T09:51:54.442Z,12.10
2018-11-06T09:54:22.797Z,12.10
2018-11-06T09:56:51.172Z,12.00
2018-11-06T09:59:19.522Z,11.90
2018-11-06T10:01:47.892Z,11.90
2018-11-06T10:04:16.378Z,11.90
2018-11-06T10:06:45.017Z,11.90
2018-11-06T10:09:13.920Z,11.90
2018-11-06T10:11:42.580Z,11.80
2018-11-06T10:14:19.197Z,11.80
2018-11-06T10:19:30.440Z,11.70
2018-11-06T10:22:01.091Z,11.70
2018-11-06T10:24:41.224Z,11.80
2018-11-06T10:27:22.872Z,11.90
2018-11-06T10:30:11.158Z,12.00
2018-11-06T10:32:47.871Z,12.00
2018-11-06T10:35:25.334Z,12.00
2018-11-06T10:38:01.616Z,12.00
2018-11-06T10:40:43.644Z,12.00
2018-11-06T10:43:21.057Z,12.10
2018-11-06T10:45:59.828Z,12.10
2018-11-06T10:48:37.709Z,12.20
2018-11-06T10:51:15.135Z,12.20
2018-11-06T10:53:45.474Z,12.20
2018-11-06T10:56:15.323Z,12.30
2018-11-06T10:58:49.249Z,12.40
2018-11-06T11:01:27.442Z,12.70
2018-11-06T11:04:08.305Z,13.00
2018-11-06T11:06:43.016Z,13.40
2018-11-06T11:09:22.124Z,13.50
2018-11-06T11:11:58.969Z,13.70
2018-11-06T11:14:36.947Z,13.80
2018-11-06T11:17:11.653Z,13.90
2018-11-06T11:19:41.028Z,14.00
2018-11-06T11:22:10.419Z,14.00
2018-11-06T11:24:41.010Z,13.90
2018-11-06T11:27:11.909Z,13.70
2018-11-06T11:29:41.228Z,13.70
2018-11-06T11:32:10.011Z,13.70
2018-11-06T11:34:40.157Z,13.60
2018-11-06T11:37:14.365Z,13.70
2018-11-06T11:39:48.688Z,13.70
2018-11-06T11:42:21.703Z,13.60
2018-11-06T11:44:59.058Z,13.70
2018-11-06T11:47:30.917Z,13.60
2018-11-06T11:50:04.198Z,13.60
2018-11-06T11:52:35.118Z,13.50
2018-11-06T11:55:05.418Z,13.60
2018-11-06T11:57:38.438Z,13.60
2018-11-06T12:00:10.653Z,13.60
2018-11-06T12:02:44.182Z,13.50
2018-11-06T12:05:16.471Z,13.50
2018-11-06T12:07:50.789Z,13.50
2018-11-06T12:10:22.462Z,13.50
2018-11-06T12:12:54.698Z,13.50
2018-11-06T12:15:24.801Z,13.60
2018-11-06T12:17:55.220Z,13.60
2018-11-06T12:20:26.318Z,13.60
2018-11-06T12:22:56.937Z,13.60
2018-11-06T12:25:27.799Z,13.60
2018-11-06T12:28:01.368Z,13.60
2018-11-06T12:30:32.850Z,13.60
2018-11-06T12:33:05.818Z,13.60
2018-11-06T12:35:35.760Z,13.60
2018-11-06T12:38:06.316Z,13.60
2018-11-06T12:40:36.284Z,13.60
2018-11-06T12:43:09.973Z,13.60
2018-11-06T12:45:46.354Z,13.60
2018-11-06T12:48:15.043Z,13.60
2018-11-06T12:53:42.071Z,13.70
2018-11-06T12:56:18.763Z,13.70
2018-11-06T12:58:54.771Z,13.70
2018-11-06T13:01:35.117Z,13.70
2018-11-06T13:04:11.563Z,13.70
2018-11-06T13:06:43.893Z,13.80
2018-11-06T13:09:16.156Z,13.80
2018-11-06T13:11:48.437Z,13.70
2018-11-06T13:14:21.810Z,13.70
2018-11-06T13:16:54.533Z,13.70
2018-11-06T13:19:24.362Z,13.80
2018-11-06T13:21:55.907Z,13.80
2018-11-06T13:24:27.640Z,13.80
2018-11-06T13:26:57.932Z,13.90
2018-11-06T13:29:32.010Z,14.00
2018-11-06T13:32:06.654Z,14.10
2018-11-06T13:34:39.458Z,14.20
2018-11-06T13:37:08.022Z,14.20
2018-11-06T13:39:36.383Z,14.30
2018-11-06T13:42:05.272Z,14.40
2018-11-06T13:44:34.006Z,14.40
2018-11-06T13:47:02.065Z,14.40
2018-11-06T13:49:30.471Z,14.50
2018-11-06T13:51:58.891Z,14.50
2018-11-06T13:54:27.338Z,14.50
2018-11-06T13:56:55.926Z,14.50
2018-11-06T13:59:24.362Z,14.60
2018-11-06T14:01:54.791Z,14.60
2018-11-06T14:04:24.056Z,14.70
2018-11-06T14:06:54.254Z,14.70
2018-11-06T14:09:23.336Z,14.80
2018-11-06T14:11:53.828Z,14.90
2018-11-06T14:14:22.592Z,15.00
2018-11-06T14:16:51.320Z,15.00
2018-11-06T14:19:19.905Z,15.00
2018-11-06T14:21:48.926Z,15.00
2018-11-06T14:24:17.643Z,15.00
2018-11-06T14:29:41.377Z,15.10
2018-11-06T14:32:09.981Z,15.00
2018-11-06T14:34:38.647Z,15.00
2018-11-06T14:37:07.272Z,14.90
2018-11-06T14:39:35.844Z,14.90
2018-11-06T14:42:04.940Z,14.70
2018-11-06T14:44:33.973Z,14.80
2018-11-06T14:47:02.849Z,14.80
2018-11-06T14:49:31.613Z,14.80
2018-11-06T14:52:00.765Z,14.80
2018-11-06T14:54:29.632Z,14.80
2018-11-06T14:56:58.620Z,14.80
2018-11-06T14:59:27.502Z,14.80
2018-11-06T15:01:56.649Z,14.80
2018-11-06T15:04:27.042Z,14.70
2018-11-06T15:06:56.625Z,14.70
2018-11-06T15:09:25.279Z,14.70
2018-11-06T15:11:53.691Z,14.70
2018-11-06T15:14:22.140Z,14.60
2018-11-06T15:16:50.531Z,14.60
2018-11-06T15:19:18.971Z,14.60
2018-11-06T15:21:47.431Z,14.60
2018-11-06T15:24:15.947Z,14.60
2018-11-06T15:26:44.356Z,14.50
2018-11-06T15:29:12.836Z,14.50
2018-11-06T15:31:41.292Z,14.40
2018-11-06T15:34:09.708Z,14.30
2018-11-06T15:36:38.122Z,14.20
2018-11-06T15:39:08.500Z,14.20
2018-11-06T15:41:37.691Z,14.10
2018-11-06T15:44:06.367Z,14.10
2018-11-06T15:46:35.030Z,14.10
2018-11-06T15:49:03.461Z,14.20
2018-11-06T15:51:31.843Z,14.20
2018-11-06T15:54:00.338Z,14.10
2018-11-06T15:56:36.600Z,14.00
2018-11-06T15:59:05.282Z,14.00
2018-11-06T16:01:33.826Z,13.90
2018-11-06T16:04:02.443Z,13.90
2018-11-06T16:06:31.021Z,13.80
2018-11-06T16:08:59.504Z,13.60
2018-11-06T16:11:27.881Z,13.70
2018-11-06T16:13:56.426Z,13.80
2018-11-06T16:16:24.988Z,13.80
2018-11-06T16:18:53.465Z,13.80
2018-11-06T16:21:22.031Z,13.70
2018-11-06T16:23:50.449Z,13.70
2018-11-06T16:26:18.977Z,13.60
2018-11-06T16:28:47.484Z,13.60
2018-11-06T16:31:15.968Z,13.60
2018-11-06T16:33:44.641Z,13.60
2018-11-06T16:36:13.203Z,13.50
2018-11-06T16:38:41.764Z,13.30
2018-11-06T16:41:10.183Z,13.10
2018-11-06T16:43:38.820Z,13.00
2018-11-06T16:46:07.196Z,13.20
2018-11-06T16:48:35.683Z,13.20
2018-11-06T16:51:04.516Z,13.20
2018-11-06T16:53:33.046Z,13.10
2018-11-06T16:56:01.480Z,12.90
2018-11-06T16:58:29.906Z,12.90
2018-11-06T17:00:58.470Z,12.80
2018-11-06T17:03:26.827Z,12.90
2018-11-06T17:05:55.277Z,12.80
2018-11-06T17:08:23.736Z,12.50
2018-11-06T17:10:52.211Z,12.60
2018-11-06T17:13:20.637Z,12.70
2018-11-06T17:15:50.598Z,12.50
2018-11-06T17:18:19.179Z,12.20
2018-11-06T17:20:47.864Z,11.80
2018-11-06T17:23:16.516Z,11.40
2018-11-06T17:25:45.215Z,11.40
2018-11-06T17:28:13.906Z,11.30
2018-11-06T17:30:42.955Z,11.20
2018-11-06T17:33:11.514Z,11.30
2018-11-06T17:35:40.227Z,11.40
2018-11-06T17:38:08.753Z,11.00
2018-11-06T17:40:37.337Z,11.10
2018-11-06T17:43:06.125Z,11.10
2018-11-06T17:45:34.565Z,11.00
2018-11-06T17:48:03.741Z,11.10
2018-11-06T17:50:32.279Z,11.30
2018-11-06T17:53:01.075Z,11.10
2018-11-06T17:55:29.895Z,11.30
2018-11-06T17:57:58.707Z,11.40
2018-11-06T18:00:27.627Z,11.40
2018-11-06T18:02:56.895Z,11.20
2018-11-06T18:05:27.085Z,11.40
2018-11-06T18:07:55.658Z,11.40
2018-11-06T18:10:26.052Z,11.40
2018-11-06T18:12:54.861Z,11.20
2018-11-06T18:15:25.043Z,11.10
2018-11-06T18:17:54.136Z,11.00
2018-11-06T18:20:23.161Z,11.10
2018-11-06T18:22:52.876Z,11.10
2018-11-06T18:30:53.119Z,11.00
2018-11-06T18:33:28.232Z,11.00
2018-11-06T18:36:07.672Z,11.10
2018-11-06T18:38:53.756Z,10.90
2018-11-06T18:41:40.126Z,10.90
2018-11-06T19:32:50.360Z,10.50
2018-11-06T19:38:39.820Z,10.70
2018-11-06T19:41:08.639Z,10.60
2018-11-06T19:43:37.737Z,10.70
2018-11-06T19:46:08.617Z,10.70
2018-11-06T19:48:37.514Z,10.70
2018-11-06T19:51:06.297Z,10.30
2018-11-06T19:53:35.175Z,10.60
2018-11-06T19:56:04.016Z,10.50
2018-11-06T19:58:32.763Z,10.20
2018-11-06T20:01:02.469Z,10.40
2018-11-06T20:03:31.348Z,10.30
2018-11-06T20:06:00.196Z,10.20
2018-11-06T20:08:29.052Z,10.30
2018-11-06T20:10:58.784Z,10.40
2018-11-06T20:13:27.566Z,10.40
2018-11-06T20:29:22.805Z,10.20
2018-11-06T20:31:52.773Z,10.50
2018-11-06T20:34:21.544Z,10.60
2018-11-06T20:36:50.229Z,10.30
2018-11-06T20:39:19.084Z,10.40
2018-11-06T20:41:47.832Z,10.40
2018-11-06T20:44:16.496Z,10.40
2018-11-06T20:49:25.108Z,10.30
2018-11-06T20:51:54.210Z,10.30
2018-11-06T20:54:22.872Z,10.40
2018-11-06T20:56:51.574Z,10.40
2018-11-06T20:59:20.327Z,10.50
2018-11-06T21:01:49.048Z,10.60
2018-11-06T21:04:17.655Z,10.60
2018-11-06T21:06:46.458Z,10.50
2018-11-06T21:09:15.112Z,10.50
2018-11-06T21:11:44.415Z,10.50
2018-11-06T21:14:13.035Z,10.50
2018-11-06T21:16:56.304Z,10.60
2018-11-06T21:19:25.092Z,10.30
2018-11-06T21:21:53.826Z,10.50
2018-11-06T21:24:22.508Z,10.60
2018-11-06T21:26:51.305Z,10.60
2018-11-06T21:29:20.384Z,10.50
2018-11-06T21:31:49.453Z,10.40
2018-11-06T21:34:18.487Z,10.20
2018-11-06T21:36:47.390Z,10.20
2018-11-06T21:42:10.789Z,10.30
2018-11-06T21:44:43.668Z,10.40
2018-11-06T21:47:13.628Z,10.60
2018-11-06T21:49:45.997Z,10.50
2018-11-06T21:52:15.939Z,10.50
2018-11-06T21:54:45.532Z,10.60
2018-11-06T21:57:14.691Z,10.50
2018-11-06T21:59:44.053Z,10.30
2018-11-06T22:02:13.211Z,10.20
2018-11-06T22:04:48.036Z,10.20
2018-11-06T22:07:17.653Z,10.10
2018-11-06T22:09:47.182Z,9.90
2018-11-06T22:12:17.191Z,9.80
2018-11-06T22:14:46.326Z,9.90
2018-11-06T22:17:15.493Z,9.90
2018-11-06T22:19:44.696Z,9.90
2018-11-06T22:22:14.478Z,9.90
2018-11-06T22:24:43.563Z,9.80
2018-11-06T22:27:14.257Z,9.80
2018-11-06T22:29:43.594Z,10.00
2018-11-06T22:32:13.170Z,10.10
2018-11-06T22:34:42.306Z,10.10
2018-11-06T22:43:32.971Z,9.50
2018-11-06T22:46:04.770Z,9.50
2018-11-06T22:48:34.363Z,9.60
2018-11-06T22:51:03.865Z,9.50
2018-11-06T22:53:33.823Z,9.40
2018-11-06T22:56:03.703Z,9.20
2018-11-06T23:01:19.262Z,9.00
2018-11-06T23:03:54.699Z,8.90
2018-11-06T23:06:24.240Z,8.70
2018-11-06T23:08:53.844Z,8.70
2018-11-06T23:11:23.070Z,8.90
2018-11-06T23:13:52.276Z,8.80
2018-11-06T23:16:21.213Z,8.80
2018-11-06T23:18:50.250Z,8.70
2018-11-06T23:21:19.422Z,8.80
2018-11-06T23:23:48.276Z,8.80
2018-11-06T23:26:17.161Z,8.90
2018-11-06T23:28:45.947Z,8.70
2018-11-06T23:31:14.869Z,8.60
2018-11-06T23:33:44.076Z,8.60
2018-11-06T23:36:12.910Z,8.70
2018-11-06T23:38:41.628Z,8.70
2018-11-06T23:41:10.567Z,8.70
2018-11-06T23:43:39.827Z,8.80
2018-11-06T23:46:09.067Z,8.90
2018-11-06T23:48:38.354Z,8.90
2018-11-06T23:51:07.552Z,8.80
2018-11-06T23:53:36.349Z,8.80
2018-11-06T23:56:05.036Z,8.70
2018-11-06T23:58:33.583Z,8.70
